Flight Track Log - Related Links

Times and Time Zones

All times are in EDT time to prevent confusion due to time zone crossing. See the N1339G flight status page for this flight to view local times or setup timezone preferences in your user account.

Time Position Orientation Groundspeed Altitude Reporting Facility
EDT Latitude Longitude Course Direction KTS MPH feet Rate Location/Type
Sun 10:35:49 AM 42.3967 -73.3650 216° Southwest 108 124 3,000  Level Boston Center
Sun 10:36:50 AM 42.3714 -73.3900 216° Southwest 113 130 3,800 787 Climbing Boston Center
Sun 10:37:51 AM 42.3481 -73.4261 229° Southwest 118 136 4,600 793 Climbing Boston Center
Sun 10:38:51 AM 42.3228 -73.4567 222° Southwest 125 144 5,400 694 Climbing Boston Center
Sun 10:40:18 AM 42.2869 -73.5036 224° Southwest 138 159 6,300 490 Climbing Boston Center
Sun 10:41:18 AM 42.2575 -73.5397 222° Southwest 144 166 6,600 50 Climbing Boston Center
Sun 10:42:18 AM 42.2239 -73.5783 220° Southwest 149 171 6,400 -50 Descending Boston Center
Sun 10:43:18 AM 42.1922 -73.6197 224° Southwest 154 177 6,500 50 Climbing Boston Center
Sun 10:44:18 AM 42.1603 -73.6611 224° Southwest 159 183 6,500 -50 Level Boston Center
Sun 10:45:18 AM 42.1308 -73.7025 226° Southwest 159 183 6,400 50 Descending Boston Center
Sun 10:46:18 AM 42.0992 -73.7411 222° Southwest 154 177 6,600 100 Climbing Boston Center
Sun 10:47:18 AM 42.0694 -73.7742 220° Southwest 154 177 6,600  Level Boston Center
Sun 10:48:18 AM 42.0314 -73.8236 224° Southwest 159 183 6,600 -550 Level Boston Center
Sun 10:49:18 AM 41.9997 -73.8647 224° Southwest 159 183 5,500 -50 Descending Boston Center
Sun 10:50:18 AM 41.9678 -73.9061 224° Southwest 159 183 6,500 500 Climbing Boston Center
Sun 10:51:18 AM 41.9342 -73.9414 218° Southwest 159 183 6,500  Level Boston Center
Sun 10:52:18 AM 41.9022 -73.9825 224° Southwest 159 183 6,500  Level Boston Center
Sun 10:53:18 AM 41.8683 -74.0181 218° Southwest 159 183 6,500  Level Boston Center
Sun 10:54:18 AM 41.8325 -74.0561 218° Southwest 159 183 6,500  Level Boston Center
Sun 10:55:18 AM 41.8028 -74.0944 224° Southwest 159 183 6,500  Level Boston Center
Sun 10:56:18 AM 41.7689 -74.1297 218° Southwest 159 183 6,500 -50 Level Boston Center
Sun 10:57:18 AM 41.7328 -74.1650 216° Southwest 159 183 6,400  Descending Boston Center
Sun 10:58:18 AM 41.7011 -74.2000 220° Southwest 159 183 6,500  Climbing Boston Center
Sun 10:59:18 AM 41.6692 -74.2353 220° Southwest 159 183 6,400 -50 Descending Boston Center
Sun 11:00:18 AM 41.6375 -74.2678 217° Southwest 159 183 6,400 50 Level Boston Center
Sun 11:01:18 AM 41.6036 -74.3031 218° Southwest 159 183 6,500 50 Climbing Boston Center
Sun 11:02:18 AM 41.5739 -74.3353 219° Southwest 159 183 6,500 -50 Level Boston Center
Sun 11:03:18 AM 41.5397 -74.3786 224° Southwest 159 183 6,400  Descending Boston Center
Sun 11:04:18 AM 41.5122 -74.4083 219° Southwest 154 177 6,500  Climbing Boston Center
Sun 11:05:18 AM 41.4781 -74.4489 222° Southwest 160 184 6,400  Descending Boston Center
Sun 11:06:18 AM 41.4483 -74.4811 219° Southwest 160 184 6,500 50 Climbing Boston Center
Sun 11:07:18 AM 41.4142 -74.5244 224° Southwest 155 178 6,500  Level Boston Center
Sun 11:08:18 AM 41.3864 -74.5567 221° Southwest 155 178 6,500  Level Boston Center
Sun 11:09:18 AM 41.3544 -74.5972 224° Southwest 155 178 6,500 -50 Level Boston Center
Sun 11:10:18 AM 41.3247 -74.6294 219° Southwest 155 178 6,400 -50 Descending Boston Center
Sun 11:11:18 AM 41.2906 -74.6669 220° Southwest 155 178 6,400 50 Level Boston Center
Sun 11:12:18 AM 41.2650 -74.6992 223° Southwest 155 178 6,500 50 Climbing Boston Center
Sun 11:13:18 AM 41.2328 -74.7422 225° Southwest 150 173 6,500 -50 Level Boston Center
Sun 11:14:18 AM 41.1986 -74.7822 221° Southwest 150 173 6,400 -100 Descending Boston Center
Sun 11:16:00 AM 41.1036 -74.8827 223° Southwest  Level FlightAware Approximate
Sun 11:23:00 AM 40.7351 -75.3252 220° Southwest  Level FlightAware Approximate
Sun 11:24:00 AM 40.6807 -75.3872 229° Southwest  Level FlightAware Approximate
Sun 11:25:00 AM 40.6500 -75.4333 229° Southwest  Level FlightAware Approximate
Sun 11:26:00 AM 40.6524 -75.4404 229° Southwest  Level Estimated
Sun 11:27:00 AM 40.6500 -75.4333 229° Southwest  Level FlightAware Approximate
Sun 11:28:00 AM 40.6524 -75.4404 229° Southwest  Level Estimated
Sun 11:29:00 AM 40.6500 -75.4333 229° Southwest  Level FlightAware Approximate

Login

Don't have an account? Register now (free) for customized features, flight alerts, and more!